Time;durP1;ratioP1;P1;durP2;ratioP2;P2;SDS_P1;SDS_P2;PMS_P1;PMS_P2;Temp;Humidity;BMP_temperature;BMP_pressure;BME280_temperature;BME280_humidity;BME280_pressure;Samples;Min_cycle;Max_cycle;Signal;HPM_P1;HPM_P2
2022/12/14 00:01:40;;;;;;;4.22;2.10;;;-3.00;99.90;;;;;;5100178;28;20462;-64
2022/12/14 00:04:07;;;;;;;2.70;1.85;;;-2.90;99.90;;;;;;5102623;28;20489;-63
2022/12/14 00:06:33;;;;;;;2.33;1.83;;;-2.90;99.90;;;;;;5098234;28;20039;-64
2022/12/14 00:09:02;;;;;;;4.15;2.35;;;-2.90;99.90;;;;;;5102871;28;20119;-64
2022/12/14 00:11:32;;;;;;;1.73;1.50;;;-2.90;99.90;;;;;;5098520;28;20048;-68
2022/12/14 00:14:01;;;;;;;1.67;1.30;;;-2.80;99.90;;;;;;5102814;28;20126;-63
2022/12/14 00:16:30;;;;;;;1.52;1.42;;;-2.80;99.90;;;;;;5104267;28;20377;-64
2022/12/14 00:18:59;;;;;;;2.42;1.77;;;-2.80;99.90;;;;;;5103458;28;20052;-64
2022/12/14 00:21:26;;;;;;;1.70;1.60;;;-2.80;99.90;;;;;;5096060;28;20170;-64
2022/12/14 00:23:54;;;;;;;2.00;1.80;;;-2.80;99.90;;;;;;5103286;28;20043;-63
2022/12/14 00:26:23;;;;;;;1.67;1.48;;;-2.80;99.90;;;;;;5097381;28;20047;-63
2022/12/14 00:28:52;;;;;;;2.08;1.88;;;-2.70;99.90;;;;;;5097659;28;20042;-63
2022/12/14 00:31:20;;;;;;;2.50;1.85;;;-2.80;99.90;;;;;;5100798;28;20063;-63
2022/12/14 00:33:49;;;;;;;2.00;1.80;;;-2.80;99.90;;;;;;5098102;28;20071;-64
2022/12/14 00:36:16;;;;;;;1.75;1.60;;;-2.70;99.90;;;;;;5101388;28;20806;-64
2022/12/14 00:38:43;;;;;;;1.80;1.70;;;-2.70;99.90;;;;;;5103781;28;20134;-64
2022/12/14 00:41:11;;;;;;;3.92;2.10;;;-2.70;99.90;;;;;;5104042;28;20450;-68
2022/12/14 00:43:38;;;;;;;2.90;1.50;;;-2.70;99.90;;;;;;5093300;28;20047;-63
2022/12/14 00:46:05;;;;;;;1.75;1.13;;;-2.70;99.90;;;;;;5105312;28;20134;-63
2022/12/14 00:48:33;;;;;;;1.55;1.35;;;-2.80;99.90;;;;;;5101833;28;20894;-64
2022/12/14 00:51:00;;;;;;;2.13;1.92;;;-2.80;99.90;;;;;;5101775;27;20036;-63
2022/12/14 00:53:27;;;;;;;3.03;1.33;;;-2.80;99.90;;;;;;5090151;28;20051;-64
2022/12/14 00:55:53;;;;;;;1.58;1.48;;;-2.80;99.90;;;;;;5100739;28;20770;-66
2022/12/14 00:58:23;;;;;;;1.65;1.25;;;-2.80;99.90;;;;;;5100003;28;20059;-64
2022/12/14 01:01:05;;;;;;;2.42;1.98;;;-2.80;99.90;;;;;;5101851;28;20054;-65
2022/12/14 01:03:33;;;;;;;1.23;1.13;;;-2.80;99.90;;;;;;5099738;28;20385;-63
2022/12/14 01:06:00;;;;;;;2.10;1.58;;;-2.80;99.90;;;;;;5104988;28;20079;-63
2022/12/14 01:08:34;;;;;;;2.37;1.70;;;-2.80;99.90;;;;;;5094528;28;20425;-65
2022/12/14 01:11:06;;;;;;;1.90;1.80;;;-2.80;99.90;;;;;;5096719;28;20036;-63
2022/12/14 01:13:34;;;;;;;2.45;1.40;;;-2.80;99.90;;;;;;5099116;28;20084;-63
2022/12/14 01:16:03;;;;;;;2.30;1.73;;;-2.80;99.90;;;;;;5100549;28;20111;-63
2022/12/14 01:18:33;;;;;;;1.33;1.10;;;-2.80;99.90;;;;;;5102389;28;20075;-64
2022/12/14 01:21:26;;;;;;;;;;;-2.80;99.90;;;;;;5099357;28;20052;-65
2022/12/14 01:23:56;;;;;;;2.10;1.20;;;-2.80;99.90;;;;;;5075641;28;19930;-65
2022/12/14 01:26:24;;;;;;;1.33;1.00;;;-2.80;99.90;;;;;;5102240;28;20128;-68
2022/12/14 01:28:55;;;;;;;1.42;1.25;;;-2.80;99.90;;;;;;5100251;28;20456;-64
2022/12/14 01:31:28;;;;;;;1.42;1.25;;;-2.80;99.90;;;;;;5102242;28;20051;-66
2022/12/14 01:33:55;;;;;;;1.02;0.98;;;-2.80;99.90;;;;;;5103714;28;20515;-68
2022/12/14 01:36:29;;;;;;;1.10;1.00;;;-2.70;99.90;;;;;;5102260;28;20048;-63
2022/12/14 01:38:58;;;;;;;4.05;1.15;;;-2.70;99.90;;;;;;5100639;28;20431;-64
2022/12/14 01:41:34;;;;;;;2.47;1.35;;;-2.70;99.90;;;;;;5098323;28;20497;-63
2022/12/14 01:44:23;;;;;;;1.58;1.20;;;-2.60;99.90;;;;;;5095520;28;20378;-63
2022/12/14 01:46:50;;;;;;;1.65;1.33;;;-2.60;99.90;;;;;;5089652;28;20558;-63
2022/12/14 01:49:33;;;;;;;1.10;0.90;;;-2.60;99.90;;;;;;5098936;27;20047;-63
2022/12/14 01:52:08;;;;;;;1.65;1.20;;;-2.60;99.90;;;;;;5097710;28;20138;-64
2022/12/14 01:54:40;;;;;;;1.98;1.60;;;-2.60;99.90;;;;;;5100209;28;20188;-65
2022/12/14 01:57:17;;;;;;;2.00;1.45;;;-2.60;99.90;;;;;;5101702;28;20044;-63
2022/12/14 01:59:46;;;;;;;1.17;1.08;;;-2.50;99.90;;;;;;5099460;28;20183;-65
2022/12/14 02:02:14;;;;;;;2.35;1.48;;;-2.50;99.90;;;;;;5099798;28;20458;-66
2022/12/14 02:04:50;;;;;;;2.63;1.52;;;-2.50;99.90;;;;;;5099728;28;20201;-64
2022/12/14 02:07:17;;;;;;;1.77;1.65;;;-2.50;99.90;;;;;;5100743;28;20058;-64
2022/12/14 02:09:45;;;;;;;2.22;1.23;;;-2.50;99.90;;;;;;5097161;28;20124;-64
2022/12/14 02:12:27;;;;;;;2.30;1.73;;;-2.40;99.90;;;;;;5101187;28;20051;-64
2022/12/14 02:14:54;;;;;;;1.38;1.25;;;-2.40;99.90;;;;;;5098438;28;20047;-63
2022/12/14 02:17:21;;;;;;;1.63;1.20;;;-2.40;99.90;;;;;;5100038;28;20043;-63
2022/12/14 02:19:49;;;;;;;1.75;1.33;;;-2.30;99.90;;;;;;5100150;28;20051;-64
2022/12/14 02:22:25;;;;;;;1.52;1.40;;;-2.30;99.90;;;;;;5101418;28;20050;-64
2022/12/14 02:24:54;;;;;;;2.33;1.80;;;-2.30;99.90;;;;;;5100716;28;20046;-65
2022/12/14 02:27:49;;;;;;;4.63;2.00;;;-2.30;99.90;;;;;;5099911;28;20051;-65
2022/12/14 02:30:25;;;;;;;5.45;1.65;;;-2.30;99.90;;;;;;5098004;28;20040;-64
2022/12/14 02:33:16;;;;;;;3.03;2.83;;;-2.40;99.90;;;;;;5100791;28;20050;-63
2022/12/14 02:36:16;;;;;;;1.20;1.08;;;-2.50;99.90;;;;;;5095122;28;20044;-64
2022/12/14 02:39:01;;;;;;;3.13;1.60;;;-2.60;99.90;;;;;;5073397;28;20100;-63
2022/12/14 02:41:53;;;;;;;1.77;1.52;;;-2.80;99.90;;;;;;5094926;28;20052;-66
2022/12/14 02:44:57;;;;;;;3.45;2.63;;;-2.90;99.90;;;;;;5099767;28;20060;-67
2022/12/14 02:47:37;;;;;;;2.22;1.73;;;-3.00;99.90;;;;;;5099686;28;20065;-65
2022/12/14 02:50:19;;;;;;;2.38;2.05;;;-3.00;99.90;;;;;;5103741;28;20039;-64
2022/12/14 02:52:52;;;;;;;1.88;1.58;;;-3.10;99.90;;;;;;5099142;28;20055;-63
2022/12/14 02:55:32;;;;;;;2.92;1.77;;;-3.10;99.90;;;;;;5096858;28;20057;-64
2022/12/14 02:58:01;;;;;;;3.30;2.27;;;-3.20;99.90;;;;;;5099908;28;20094;-66
2022/12/14 03:00:34;;;;;;;4.05;2.22;;;-3.20;99.90;;;;;;5103516;28;20496;-64
2022/12/14 03:03:04;;;;;;;3.72;2.10;;;-3.30;99.90;;;;;;5103251;28;20202;-64
2022/12/14 03:05:32;;;;;;;1.90;1.67;;;-3.30;99.90;;;;;;5098421;28;20134;-63
2022/12/14 03:08:03;;;;;;;2.65;1.92;;;-3.40;99.90;;;;;;5095638;28;20040;-64
2022/12/14 03:10:54;;;;;;;2.60;2.40;;;-3.50;99.90;;;;;;5087307;28;20440;-67
2022/12/14 03:13:25;;;;;;;2.63;1.90;;;-3.60;99.90;;;;;;5101814;28;20054;-66
2022/12/14 03:16:42;;;;;;;2.40;1.60;;;-3.60;99.90;;;;;;5099695;28;20055;-64
2022/12/14 03:19:21;;;;;;;2.87;1.60;;;-3.70;99.90;;;;;;5014078;28;20064;-63
2022/12/14 03:22:00;;;;;;;3.08;1.60;;;-3.70;99.90;;;;;;5102134;28;20051;-61
2022/12/14 03:24:43;;;;;;;1.88;1.60;;;-3.70;99.90;;;;;;5106374;28;20043;-62
2022/12/14 03:27:21;;;;;;;1.88;1.75;;;-3.70;99.90;;;;;;5103179;28;20147;-62
2022/12/14 03:30:10;;;;;;;1.77;1.67;;;-3.70;99.90;;;;;;5077379;28;20048;-64
2022/12/14 03:32:52;;;;;;;1.55;1.45;;;-3.70;99.90;;;;;;5105257;28;20118;-65
2022/12/14 03:35:38;;;;;;;2.08;1.92;;;-3.70;99.90;;;;;;5099027;28;20455;-62
2022/12/14 03:38:29;;;;;;;2.30;2.10;;;-3.70;99.90;;;;;;5099364;28;20135;-63
2022/12/14 03:41:24;;;;;;;2.37;2.13;;;-3.70;99.90;;;;;;5100058;28;20066;-63
2022/12/14 03:44:10;;;;;;;2.50;2.20;;;-3.70;99.90;;;;;;5103616;28;20059;-63
2022/12/14 03:46:46;;;;;;;3.63;2.53;;;-3.70;99.90;;;;;;5100845;28;20043;-62
2022/12/14 03:49:38;;;;;;;2.93;2.67;;;-3.70;99.90;;;;;;5101788;28;20141;-64
2022/12/14 03:52:20;;;;;;;2.22;2.00;;;-3.70;99.90;;;;;;5100988;28;20047;-63
2022/12/14 03:55:09;;;;;;;2.43;2.23;;;-3.60;99.90;;;;;;5101373;28;20094;-62
2022/12/14 03:57:43;;;;;;;3.53;2.40;;;-3.60;99.90;;;;;;5103558;28;20050;-63
2022/12/14 04:00:15;;;;;;;4.00;2.40;;;-3.60;99.90;;;;;;5102324;28;20139;-63
2022/12/14 04:03:16;;;;;;;2.43;2.20;;;-3.60;99.90;;;;;;5099848;28;20061;-62
2022/12/14 04:06:01;;;;;;;2.70;2.37;;;-3.60;99.90;;;;;;5101492;28;20051;-62
2022/12/14 04:08:37;;;;;;;5.63;2.80;;;-3.60;99.90;;;;;;5102465;28;20410;-62
2022/12/14 04:20:18;;;;;;;2.90;2.50;;;-3.50;99.90;;;;;;5022173;28;20052;-64
2022/12/14 04:23:11;;;;;;;3.42;2.75;;;-3.50;99.90;;;;;;5077531;28;20055;-63
2022/12/14 04:31:27;;;;;;;6.93;3.80;;;-3.50;99.90;;;;;;5100822;28;20056;-66
2022/12/14 04:33:57;;;;;;;;;;;-3.50;99.90;;;;;;5106300;28;20071;-64
2022/12/14 04:36:42;;;;;;;5.17;3.53;;;-3.50;99.90;;;;;;5098919;28;19924;-66
2022/12/14 04:39:19;;;;;;;5.40;3.25;;;-3.50;99.90;;;;;;5100070;28;20059;-62
2022/12/14 04:41:50;;;;;;;6.38;4.28;;;-3.50;99.90;;;;;;5100036;28;20054;-63
2022/12/14 04:44:34;;;;;;;6.80;4.43;;;-3.50;99.90;;;;;;5098683;28;20040;-63
2022/12/14 04:47:06;;;;;;;5.30;4.33;;;-3.50;99.90;;;;;;5101447;28;20070;-63
2022/12/14 04:49:49;;;;;;;5.18;4.18;;;-3.50;99.90;;;;;;5100323;28;20071;-62
2022/12/14 04:52:29;;;;;;;5.18;4.28;;;-3.50;99.90;;;;;;5099697;28;20047;-63
2022/12/14 04:55:06;;;;;;;5.40;4.00;;;-3.50;99.90;;;;;;5101658;28;20052;-65
2022/12/14 04:57:40;;;;;;;5.33;4.37;;;-3.50;99.90;;;;;;5099296;28;20063;-63
2022/12/14 05:00:09;;;;;;;6.20;5.15;;;-3.50;99.90;;;;;;5101810;28;20065;-63
2022/12/14 05:02:44;;;;;;;6.20;4.60;;;-3.50;99.90;;;;;;5101145;28;20040;-64
2022/12/14 05:05:25;;;;;;;5.53;4.28;;;-3.50;99.90;;;;;;5099331;28;20048;-64
2022/12/14 05:08:21;;;;;;;8.63;5.00;;;-3.50;99.90;;;;;;5077517;28;20576;-63
2022/12/14 05:11:00;;;;;;;7.00;5.60;;;-3.50;99.90;;;;;;5098052;28;20048;-63
2022/12/14 05:13:49;;;;;;;9.20;5.13;;;-3.50;99.90;;;;;;5101319;28;20523;-63
2022/12/14 05:16:18;;;;;;;6.38;5.18;;;-3.50;99.90;;;;;;5101446;28;20043;-63
2022/12/14 05:18:45;;;;;;;9.03;5.73;;;-3.50;99.90;;;;;;5102030;28;20060;-67
2022/12/14 05:24:01;;;;;;;8.20;5.87;;;-3.50;99.90;;;;;;5096633;28;20047;-64
2022/12/14 05:26:31;;;;;;;7.65;5.70;;;-3.50;99.90;;;;;;5101599;28;20051;-63
2022/12/14 05:28:57;;;;;;;10.40;6.57;;;-3.50;99.90;;;;;;5098624;28;20339;-66
2022/12/14 05:31:24;;;;;;;10.98;5.97;;;-3.50;99.90;;;;;;5098024;28;20039;-67
2022/12/14 05:33:51;;;;;;;8.18;5.57;;;-3.50;99.90;;;;;;5103201;28;20146;-63
2022/12/14 05:36:18;;;;;;;9.20;7.30;;;-3.50;99.90;;;;;;5096938;28;20097;-64
2022/12/14 05:38:45;;;;;;;10.23;6.80;;;-3.40;99.90;;;;;;5095992;28;20067;-63
2022/12/14 05:41:13;;;;;;;7.53;6.10;;;-3.40;99.90;;;;;;5104290;28;20050;-63
2022/12/14 05:43:40;;;;;;;9.02;6.40;;;-3.40;99.90;;;;;;5096349;28;20039;-64
2022/12/14 05:46:10;;;;;;;11.20;6.93;;;-3.40;99.90;;;;;;5102107;28;20051;-68
2022/12/14 05:48:37;;;;;;;8.07;7.28;;;-3.40;99.90;;;;;;5102378;28;20112;-64
2022/12/14 05:51:09;;;;;;;9.02;7.10;;;-3.40;99.90;;;;;;5101320;28;20046;-64
2022/12/14 05:53:37;;;;;;;9.77;7.53;;;-3.40;99.90;;;;;;5093601;28;20504;-65
2022/12/14 05:56:05;;;;;;;10.52;7.35;;;-3.40;99.90;;;;;;5099716;28;20094;-64
2022/12/14 05:58:34;;;;;;;12.32;8.32;;;-3.30;99.90;;;;;;5101113;28;20054;-62
2022/12/14 06:01:02;;;;;;;10.82;7.82;;;-3.30;99.90;;;;;;5100303;28;20130;-63
2022/12/14 06:03:29;;;;;;;12.07;8.40;;;-3.30;99.90;;;;;;5098179;28;20056;-62
2022/12/14 06:06:04;;;;;;;9.87;8.60;;;-3.30;99.90;;;;;;5098909;28;20051;-63
2022/12/14 06:08:36;;;;;;;11.15;8.35;;;-3.20;99.90;;;;;;5100273;28;20047;-63
2022/12/14 06:11:09;;;;;;;12.68;8.68;;;-3.20;99.90;;;;;;5097917;28;20427;-63
2022/12/14 06:13:37;;;;;;;10.85;7.07;;;-3.20;99.90;;;;;;5089524;28;20035;-62
2022/12/14 06:16:13;;;;;;;11.20;8.35;;;-3.10;99.90;;;;;;5098328;28;20062;-62
2022/12/14 06:18:46;;;;;;;12.23;9.32;;;-3.10;99.90;;;;;;5098249;28;20036;-67
2022/12/14 06:21:14;;;;;;;12.03;7.77;;;-3.10;99.90;;;;;;5095781;28;20101;-62
2022/12/14 06:23:42;;;;;;;11.93;8.73;;;-3.00;99.90;;;;;;5099010;28;20036;-63
2022/12/14 06:26:09;;;;;;;15.65;11.75;;;-2.90;99.90;;;;;;5091438;28;20116;-63
2022/12/14 06:28:37;;;;;;;12.85;9.50;;;-2.80;99.90;;;;;;5096975;28;20054;-64
2022/12/14 06:31:05;;;;;;;12.30;9.13;;;-2.70;99.90;;;;;;5094081;28;20090;-63
2022/12/14 06:33:36;;;;;;;13.18;9.10;;;-2.70;99.90;;;;;;5096914;28;20055;-63
2022/12/14 06:36:03;;;;;;;12.75;9.07;;;-2.60;99.90;;;;;;5082562;28;20047;-63
2022/12/14 06:38:30;;;;;;;14.10;9.63;;;-2.60;99.90;;;;;;5098311;28;20043;-64
2022/12/14 06:40:57;;;;;;;13.45;10.43;;;-2.50;99.90;;;;;;5092267;28;20043;-63
2022/12/14 06:43:25;;;;;;;15.63;12.35;;;-2.40;99.90;;;;;;5099807;28;20040;-66
2022/12/14 06:45:53;;;;;;;18.58;11.90;;;-2.40;99.90;;;;;;5099744;28;20098;-63
2022/12/14 06:48:20;;;;;;;21.40;14.57;;;-2.30;99.90;;;;;;5097456;28;20120;-63
2022/12/14 06:50:48;;;;;;;21.73;14.55;;;-2.20;99.90;;;;;;5098135;28;20056;-64
2022/12/14 06:53:14;;;;;;;28.15;17.92;;;-2.10;99.90;;;;;;5096179;28;20043;-63
2022/12/14 06:55:41;;;;;;;31.13;17.20;;;-1.80;99.90;;;;;;5096300;28;20496;-63
2022/12/14 06:58:14;;;;;;;35.63;20.52;;;-1.50;99.90;;;;;;5097429;28;20054;-63
2022/12/14 07:00:41;;;;;;;34.45;21.38;;;-1.00;99.90;;;;;;5091855;28;20040;-64
2022/12/14 07:03:09;;;;;;;36.92;20.13;;;-0.40;99.90;;;;;;5098825;28;20051;-63
2022/12/14 07:05:36;;;;;;;29.10;18.15;;;0.00;99.90;;;;;;5098831;28;20357;-63
2022/12/14 07:08:03;;;;;;;30.77;18.70;;;0.30;99.90;;;;;;5098567;28;20051;-66
2022/12/14 07:10:30;;;;;;;24.48;15.80;;;0.50;99.90;;;;;;5095919;28;20150;-63
2022/12/14 07:12:57;;;;;;;28.02;14.52;;;0.70;99.90;;;;;;5096317;28;20370;-64
2022/12/14 07:15:24;;;;;;;21.45;15.02;;;0.80;99.90;;;;;;5095443;28;20460;-64
2022/12/14 07:17:51;;;;;;;28.13;15.43;;;0.90;99.90;;;;;;5100108;28;20036;-64
2022/12/14 07:20:18;;;;;;;26.65;14.13;;;1.10;99.90;;;;;;5097975;28;20040;-63
2022/12/14 07:22:44;;;;;;;21.17;14.27;;;1.20;99.90;;;;;;5095686;28;20052;-65
2022/12/14 07:25:15;;;;;;;22.60;14.18;;;1.30;99.90;;;;;;5094620;28;20175;-63
2022/12/14 07:27:41;;;;;;;22.02;14.20;;;1.30;99.90;;;;;;5101368;28;20036;-63
2022/12/14 07:30:09;;;;;;;18.58;12.57;;;1.30;99.90;;;;;;5101054;28;20389;-63
2022/12/14 07:32:36;;;;;;;17.58;11.13;;;1.40;99.90;;;;;;5095168;28;20410;-63
2022/12/14 07:35:03;;;;;;;19.35;10.32;;;1.50;99.90;;;;;;5103730;28;20052;-63
2022/12/14 07:37:30;;;;;;;18.33;10.77;;;1.50;99.90;;;;;;5097625;28;20228;-65
2022/12/14 07:39:57;;;;;;;18.25;10.48;;;1.50;99.90;;;;;;5103716;28;20043;-64
2022/12/14 07:42:23;;;;;;;15.32;9.55;;;1.50;99.90;;;;;;5104891;28;20070;-64
2022/12/14 07:44:50;;;;;;;13.27;8.88;;;1.60;99.90;;;;;;5104707;28;20123;-63
2022/12/14 07:47:17;;;;;;;15.95;9.93;;;1.70;99.90;;;;;;5098064;28;20044;-63
2022/12/14 07:49:44;;;;;;;13.57;9.70;;;1.80;99.90;;;;;;5103966;28;20162;-64
2022/12/14 07:52:13;;;;;;;20.77;9.10;;;1.80;99.90;;;;;;5100678;28;20384;-65
2022/12/14 07:54:41;;;;;;;11.13;8.25;;;1.90;99.90;;;;;;5102670;28;20468;-63
2022/12/14 07:57:07;;;;;;;11.85;8.32;;;1.90;99.90;;;;;;5099001;28;20314;-66
2022/12/14 07:59:34;;;;;;;13.10;7.75;;;1.90;99.90;;;;;;5099518;28;20052;-64
2022/12/14 08:02:01;;;;;;;11.02;8.52;;;2.00;99.90;;;;;;5100175;28;20348;-64
2022/12/14 08:04:28;;;;;;;11.25;8.30;;;2.00;99.90;;;;;;5102825;28;20273;-64
2022/12/14 08:06:55;;;;;;;13.85;7.82;;;2.00;99.90;;;;;;5104546;28;20139;-65
2022/12/14 08:09:24;;;;;;;14.48;8.40;;;2.00;99.90;;;;;;5102252;28;20047;-64
2022/12/14 08:11:51;;;;;;;11.68;7.90;;;2.10;99.90;;;;;;5083418;28;20374;-64
2022/12/14 08:14:19;;;;;;;12.00;7.25;;;2.10;99.90;;;;;;5103550;28;20054;-66
2022/12/14 08:16:48;;;;;;;15.23;9.20;;;2.00;99.90;;;;;;5103502;28;20073;-63
2022/12/14 08:19:16;;;;;;;20.85;11.95;;;2.00;99.90;;;;;;5102510;28;20054;-64
2022/12/14 08:21:44;;;;;;;14.73;11.48;;;1.90;99.90;;;;;;5100796;28;20542;-64
2022/12/14 08:24:12;;;;;;;13.00;8.90;;;1.80;99.90;;;;;;5104019;28;20501;-63
2022/12/14 08:26:40;;;;;;;11.73;7.00;;;1.80;99.90;;;;;;5095167;28;20063;-64
2022/12/14 08:29:06;;;;;;;13.95;8.65;;;1.80;99.90;;;;;;5100546;28;20483;-68
2022/12/14 08:31:33;;;;;;;12.23;8.88;;;1.80;99.90;;;;;;5098759;28;20043;-63
2022/12/14 08:34:01;;;;;;;15.95;9.05;;;1.80;99.90;;;;;;5104584;28;20399;-64
2022/12/14 08:36:33;;;;;;;16.42;8.93;;;1.80;99.90;;;;;;5099369;28;20122;-63
2022/12/14 08:39:05;;;;;;;11.85;8.75;;;1.80;99.90;;;;;;5100444;28;20047;-64
2022/12/14 08:41:32;;;;;;;14.70;8.68;;;1.90;99.90;;;;;;5101572;28;20042;-63
2022/12/14 08:44:01;;;;;;;14.70;8.45;;;2.00;99.90;;;;;;5099611;28;20048;-64
2022/12/14 08:46:30;;;;;;;12.82;8.45;;;2.00;99.90;;;;;;5100619;28;20063;-64
2022/12/14 08:48:57;;;;;;;13.68;9.20;;;2.00;99.90;;;;;;5102918;28;20097;-64
2022/12/14 08:51:26;;;;;;;15.38;9.25;;;2.00;99.90;;;;;;5099774;28;20906;-65
2022/12/14 08:53:54;;;;;;;13.73;8.07;;;2.00;99.90;;;;;;5100979;28;20443;-63
2022/12/14 08:56:24;;;;;;;20.20;9.20;;;2.10;99.90;;;;;;5099581;28;20052;-69
2022/12/14 08:58:51;;;;;;;13.82;8.32;;;2.10;99.90;;;;;;5104779;28;20047;-64
2022/12/14 09:01:23;;;;;;;11.38;7.43;;;2.20;99.90;;;;;;5100210;28;20047;-63
2022/12/14 09:04:07;;;;;;;11.73;7.60;;;2.20;99.90;;;;;;5098155;28;20054;-67
2022/12/14 09:06:37;;;;;;;13.85;8.88;;;2.20;99.90;;;;;;5103387;28;20461;-63
2022/12/14 09:09:05;;;;;;;11.48;6.78;;;2.20;99.90;;;;;;5103232;28;20142;-62
2022/12/14 09:11:42;;;;;;;8.40;6.65;;;2.20;99.90;;;;;;5099434;28;20058;-68
2022/12/14 09:14:09;;;;;;;13.18;7.55;;;2.20;99.90;;;;;;5101918;28;20044;-64
2022/12/14 09:16:36;;;;;;;12.10;7.63;;;2.20;99.90;;;;;;5100317;28;20385;-64
2022/12/14 09:19:03;;;;;;;12.38;6.85;;;2.30;99.90;;;;;;5097919;28;20051;-64
2022/12/14 09:21:30;;;;;;;14.77;7.22;;;2.30;99.90;;;;;;5099389;28;20035;-67
2022/12/14 09:23:57;;;;;;;14.45;8.40;;;2.30;99.90;;;;;;5102499;28;20126;-65
2022/12/14 09:26:26;;;;;;;9.80;7.38;;;2.40;99.90;;;;;;5102005;28;20063;-66
2022/12/14 09:28:55;;;;;;;17.23;7.65;;;2.40;99.90;;;;;;5102452;28;20052;-66
2022/12/14 09:31:25;;;;;;;13.65;7.45;;;2.40;99.90;;;;;;5099077;28;20374;-66
2022/12/14 09:33:52;;;;;;;10.10;6.57;;;2.50;99.90;;;;;;5101853;28;20051;-64
2022/12/14 09:36:22;;;;;;;9.45;6.38;;;2.50;99.90;;;;;;5100845;28;20048;-69
2022/12/14 09:38:50;;;;;;;13.10;7.13;;;2.50;99.90;;;;;;5096577;28;20052;-63
2022/12/14 09:41:33;;;;;;;13.52;6.20;;;2.50;99.90;;;;;;5100039;28;20473;-64
2022/12/14 09:44:03;;;;;;;13.73;6.93;;;2.50;99.90;;;;;;5102763;28;20065;-64
2022/12/14 09:46:55;;;;;;;11.95;7.30;;;2.50;99.90;;;;;;5096454;28;20231;-67
2022/12/14 09:49:39;;;;;;;9.75;6.10;;;2.50;99.90;;;;;;5095358;28;20130;-64
2022/12/14 09:52:14;;;;;;;10.82;6.00;;;2.50;99.90;;;;;;5100121;28;20124;-66
2022/12/14 09:54:43;;;;;;;9.02;7.03;;;2.50;99.90;;;;;;5102860;28;20085;-65
2022/12/14 09:57:14;;;;;;;12.80;6.72;;;2.50;99.90;;;;;;5099182;28;20454;-63
2022/12/14 09:59:41;;;;;;;13.02;7.95;;;2.50;99.90;;;;;;5102004;28;20105;-65
2022/12/14 10:02:26;;;;;;;10.13;7.43;;;2.50;99.90;;;;;;5098339;28;20052;-65
2022/12/14 10:05:18;;;;;;;13.85;6.57;;;2.40;99.90;;;;;;5098861;28;20112;-64
2022/12/14 10:07:51;;;;;;;10.93;7.95;;;2.50;99.90;;;;;;5099588;28;20044;-65
2022/12/14 10:10:41;;;;;;;10.77;6.10;;;2.50;99.90;;;;;;5098393;28;20100;-66
2022/12/14 10:13:25;;;;;;;10.68;6.85;;;2.50;99.90;;;;;;5100946;28;20123;-64
2022/12/14 10:16:11;;;;;;;18.65;7.15;;;2.50;99.90;;;;;;5099557;28;20048;-66
2022/12/14 10:18:58;;;;;;;12.90;8.88;;;2.50;99.90;;;;;;5097760;28;20043;-65
2022/12/14 10:22:02;;;;;;;10.88;7.40;;;2.60;99.90;;;;;;5098130;28;20059;-69
2022/12/14 10:24:41;;;;;;;14.10;8.10;;;2.60;99.90;;;;;;5081746;28;20055;-66
2022/12/14 10:27:13;;;;;;;10.93;6.57;;;2.60;99.90;;;;;;5099691;28;20167;-65
2022/12/14 10:29:47;;;;;;;11.40;5.95;;;2.50;99.90;;;;;;5096368;28;20105;-64
2022/12/14 10:32:37;;;;;;;11.13;5.82;;;2.50;99.90;;;;;;5097245;28;20391;-66
2022/12/14 10:35:21;;;;;;;10.60;6.55;;;2.50;99.90;;;;;;5089111;28;20059;-64
2022/12/14 10:38:13;;;;;;;10.57;7.50;;;2.50;99.90;;;;;;5099522;28;20097;-65
2022/12/14 10:40:47;;;;;;;9.30;6.40;;;2.50;99.90;;;;;;5100088;28;20040;-65
2022/12/14 10:43:44;;;;;;;9.23;5.72;;;2.50;99.90;;;;;;5098611;28;20377;-64
2022/12/14 10:46:22;;;;;;;10.40;6.38;;;2.50;99.90;;;;;;5096756;28;20055;-64
2022/12/14 10:49:23;;;;;;;11.93;6.68;;;2.50;99.90;;;;;;5100980;28;20058;-65
2022/12/14 10:51:55;;;;;;;6.80;5.05;;;2.50;99.90;;;;;;5080173;28;20121;-64
2022/12/14 10:54:37;;;;;;;9.27;6.22;;;2.50;99.90;;;;;;5098499;28;20170;-65
2022/12/14 10:57:04;;;;;;;11.20;6.05;;;2.60;99.90;;;;;;5098100;28;20484;-66
2022/12/14 10:59:36;;;;;;;9.13;5.63;;;2.60;99.90;;;;;;5095233;28;20047;-64
2022/12/14 11:02:17;;;;;;;12.07;6.20;;;2.50;99.90;;;;;;5100513;28;20461;-69
2022/12/14 11:04:54;;;;;;;8.57;5.03;;;2.50;99.90;;;;;;5094537;28;20051;-64
2022/12/14 11:07:48;;;;;;;6.82;4.82;;;2.50;99.90;;;;;;5089091;28;20143;-65
2022/12/14 11:10:22;;;;;;;10.10;4.15;;;2.50;99.90;;;;;;5093675;28;20648;-66
2022/12/14 11:13:02;;;;;;;8.57;3.30;;;2.50;99.90;;;;;;5098440;28;20044;-65
2022/12/14 11:15:32;;;;;;;8.73;4.93;;;2.60;99.90;;;;;;5100047;28;20080;-64
2022/12/14 11:18:28;;;;;;;5.40;4.40;;;2.60;99.90;;;;;;5099350;28;20043;-63
2022/12/14 11:20:59;;;;;;;9.98;4.95;;;2.60;99.90;;;;;;5096417;28;20039;-63
2022/12/14 11:23:29;;;;;;;7.65;4.90;;;2.60;99.90;;;;;;5096228;28;20052;-66
2022/12/14 11:26:01;;;;;;;9.50;7.45;;;2.60;99.90;;;;;;5101453;28;20039;-67
2022/12/14 11:28:50;;;;;;;15.75;8.65;;;2.60;99.90;;;;;;5102250;28;20046;-65
2022/12/14 11:31:23;;;;;;;13.05;8.25;;;2.60;99.90;;;;;;5098229;28;20051;-64
2022/12/14 11:33:53;;;;;;;10.40;6.70;;;2.60;99.90;;;;;;5096273;28;20047;-65
2022/12/14 11:36:35;;;;;;;11.38;6.70;;;2.60;99.90;;;;;;5098725;28;20054;-65
2022/12/14 11:39:06;;;;;;;17.52;7.53;;;2.60;99.90;;;;;;5096163;28;20055;-67
2022/12/14 11:41:37;;;;;;;11.77;8.70;;;2.70;99.90;;;;;;5097635;28;20143;-66
2022/12/14 11:44:13;;;;;;;14.73;7.60;;;2.70;99.90;;;;;;5097634;28;20058;-67
2022/12/14 11:46:50;;;;;;;10.55;5.75;;;2.60;99.90;;;;;;5099125;28;20710;-66
2022/12/14 11:49:25;;;;;;;11.80;6.75;;;2.60;99.90;;;;;;5096164;28;20051;-65
2022/12/14 11:52:03;;;;;;;11.40;6.30;;;2.60;99.90;;;;;;5102157;28;20158;-65
2022/12/14 11:54:38;;;;;;;14.98;7.88;;;2.70;99.90;;;;;;5103063;28;20069;-65
2022/12/14 11:57:11;;;;;;;10.45;6.65;;;2.70;99.90;;;;;;5102602;28;20165;-65
2022/12/14 11:59:56;;;;;;;8.93;5.82;;;2.70;99.90;;;;;;5099627;28;20044;-65
2022/12/14 12:02:32;;;;;;;8.52;5.68;;;2.70;99.90;;;;;;5106217;28;20039;-66
2022/12/14 12:05:12;;;;;;;11.05;5.63;;;2.70;99.90;;;;;;5097132;28;20096;-65
2022/12/14 12:07:47;;;;;;;9.02;5.20;;;2.70;99.90;;;;;;5104142;27;20054;-67
2022/12/14 12:10:40;;;;;;;8.82;5.45;;;2.70;99.90;;;;;;5104112;28;20062;-65
2022/12/14 12:13:25;;;;;;;8.52;5.22;;;2.70;99.90;;;;;;5099720;28;20042;-65
2022/12/14 12:15:55;;;;;;;6.97;3.92;;;2.60;99.90;;;;;;5101633;28;20058;-66
2022/12/14 12:18:44;;;;;;;15.40;8.13;;;2.60;99.90;;;;;;5078362;28;20048;-65
2022/12/14 12:21:26;;;;;;;13.20;5.78;;;2.60;99.90;;;;;;5101917;28;20160;-67
2022/12/14 12:24:04;;;;;;;7.35;5.53;;;2.70;99.90;;;;;;5101936;28;20891;-64
2022/12/14 12:26:55;;;;;;;10.23;5.53;;;2.70;99.90;;;;;;5099680;28;20054;-66
2022/12/14 12:29:25;;;;;;;10.40;4.43;;;2.70;99.90;;;;;;5099504;28;20052;-67
2022/12/14 12:32:17;;;;;;;10.25;4.90;;;2.70;99.90;;;;;;5102513;28;20047;-66
2022/12/14 12:34:59;;;;;;;7.68;4.88;;;2.70;99.90;;;;;;5105035;27;20055;-65
2022/12/14 12:37:43;;;;;;;9.93;5.28;;;2.70;99.90;;;;;;5101950;28;20040;-65
2022/12/14 12:40:30;;;;;;;7.55;4.47;;;2.70;99.90;;;;;;5096267;28;20046;-65
2022/12/14 12:43:10;;;;;;;6.43;4.65;;;2.70;99.90;;;;;;5103620;28;20062;-65
2022/12/14 12:45:44;;;;;;;7.53;4.70;;;2.70;99.90;;;;;;5098602;28;20044;-65
2022/12/14 12:48:24;;;;;;;8.20;7.35;;;2.60;99.90;;;;;;5098503;28;20476;-66
2022/12/14 12:51:05;;;;;;;6.97;4.63;;;2.60;99.90;;;;;;5097870;28;20055;-66
2022/12/14 12:53:46;;;;;;;9.70;5.57;;;2.50;99.90;;;;;;5092418;28;20062;-65
2022/12/14 12:56:18;;;;;;;7.20;4.93;;;2.50;99.90;;;;;;5097911;28;20277;-64
2022/12/14 12:58:49;;;;;;;9.00;5.28;;;2.40;99.90;;;;;;5099654;28;20764;-67
2022/12/14 13:01:25;;;;;;;7.40;4.47;;;2.40;99.90;;;;;;5091735;28;20067;-65
2022/12/14 13:03:57;;;;;;;8.05;4.78;;;2.40;99.90;;;;;;5100615;28;20142;-65
2022/12/14 13:06:39;;;;;;;9.57;5.10;;;2.40;99.90;;;;;;5091527;28;20506;-65
2022/12/14 13:09:16;;;;;;;8.13;5.70;;;2.30;99.90;;;;;;5102547;28;20143;-64
2022/12/14 13:11:44;;;;;;;9.68;5.85;;;2.30;99.90;;;;;;5098131;28;20542;-65
2022/12/14 13:14:23;;;;;;;9.07;5.75;;;2.30;99.90;;;;;;5102162;28;20058;-65
2022/12/14 13:16:51;;;;;;;8.43;4.72;;;2.30;99.90;;;;;;5104695;28;20996;-65
2022/12/14 13:19:54;;;;;;;13.90;6.40;;;2.30;99.90;;;;;;5098477;28;20043;-65
2022/12/14 13:22:27;;;;;;;7.63;5.00;;;2.30;99.90;;;;;;5039548;28;20559;-67
2022/12/14 13:25:04;;;;;;;10.18;6.05;;;2.30;99.90;;;;;;5091174;28;20140;-65
2022/12/14 13:27:55;;;;;;;7.38;5.63;;;2.30;99.90;;;;;;5092667;28;20445;-65
2022/12/14 13:30:46;;;;;;;9.63;5.40;;;2.30;99.90;;;;;;5101152;28;20127;-65
2022/12/14 13:33:32;;;;;;;13.80;6.45;;;2.30;99.90;;;;;;5100684;28;20050;-65
2022/12/14 13:36:17;;;;;;;8.75;5.90;;;2.40;99.90;;;;;;5093055;28;20425;-65
2022/12/14 13:39:05;;;;;;;13.63;5.22;;;2.30;99.90;;;;;;5100703;28;20126;-65
2022/12/14 13:41:47;;;;;;;9.15;4.85;;;2.40;99.90;;;;;;5092338;28;20057;-65
2022/12/14 13:44:39;;;;;;;8.50;5.30;;;2.50;99.90;;;;;;5095453;28;20039;-66